Terminal Aerodrome Forecast
Issued by NWS

Current Version | Previous Version | Text Only | Print | Product List | Glossary On
Versions: 1 2 3 4 5 6 7 8 9 10 11 12 13 14 15 16 17 18 19 20 21 22 23 24 25 26 27 28 29 30 31 32
167
FTUS46 KOTX 141741
TAFPUW
TAF
KPUW 141741Z 1418/1518 24011KT P6SM -RA SCT006 OVC050
     FM142100 23009KT P6SM -RA OVC015
     FM150500 23016G23KT P6SM -RA SCT015 BKN025
     FM150800 24020G30KT P6SM VCSH SCT025 OVC040
     FM151400 24024G34KT P6SM SCT060 OVC120=

USA.gov is the U.S. government's official web portal to all federal, state and local government web resources and services.